createdAt,value
2023-04-08T00:00:22.789Z,11.30
2023-04-08T00:02:50.690Z,11.05
2023-04-08T00:05:18.437Z,10.75
2023-04-08T00:07:46.171Z,11.40
2023-04-08T00:10:13.833Z,11.95
2023-04-08T00:12:42.830Z,11.35
2023-04-08T00:15:11.119Z,10.43
2023-04-08T00:17:38.780Z,12.15
2023-04-08T00:20:07.681Z,11.18
2023-04-08T00:22:35.707Z,11.48
2023-04-08T00:25:06.642Z,11.98
2023-04-08T00:27:34.412Z,12.05
2023-04-08T00:30:03.774Z,10.80
2023-04-08T00:32:31.592Z,11.30
2023-04-08T00:34:59.886Z,10.65
2023-04-08T00:37:27.523Z,12.13
2023-04-08T00:39:55.324Z,11.85
2023-04-08T00:42:22.961Z,11.20
2023-04-08T00:44:50.895Z,11.05
2023-04-08T00:47:20.099Z,10.73
2023-04-08T00:49:47.797Z,11.50
2023-04-08T00:52:15.572Z,11.65
2023-04-08T00:54:43.545Z,11.65
2023-04-08T00:57:11.449Z,11.93
2023-04-08T00:59:39.221Z,11.88
2023-04-08T01:02:15.683Z,12.13
2023-04-08T01:04:54.585Z,10.75
2023-04-08T01:07:28.009Z,11.98
2023-04-08T01:09:58.504Z,11.88
2023-04-08T01:12:28.395Z,12.10
2023-04-08T01:15:01.337Z,11.50
2023-04-08T01:17:30.431Z,12.05
2023-04-08T01:20:01.686Z,11.18
2023-04-08T01:22:38.569Z,11.82
2023-04-08T01:25:12.752Z,10.90
2023-04-08T01:27:42.717Z,12.20
2023-04-08T01:30:11.957Z,11.95
2023-04-08T01:32:42.158Z,11.93
2023-04-08T01:35:11.148Z,12.02
2023-04-08T01:37:40.678Z,11.52
2023-04-08T01:40:10.127Z,11.00
2023-04-08T01:42:38.996Z,10.25
2023-04-08T01:45:10.555Z,11.20
2023-04-08T01:47:39.674Z,11.15
2023-04-08T01:50:10.368Z,10.13
2023-04-08T01:52:41.830Z,11.27
2023-04-08T01:55:10.005Z,11.48
2023-04-08T01:57:39.762Z,12.13
2023-04-08T02:00:11.233Z,11.60
2023-04-08T02:02:42.172Z,11.25
2023-04-08T02:05:10.606Z,12.00
2023-04-08T02:07:38.353Z,11.80
2023-04-08T02:10:07.251Z,12.32
2023-04-08T02:12:35.528Z,11.88
2023-04-08T02:15:04.137Z,12.05
2023-04-08T02:17:37.408Z,12.57
2023-04-08T02:20:08.692Z,11.80
2023-04-08T02:22:42.210Z,10.75
2023-04-08T02:25:13.178Z,12.98
2023-04-08T02:27:41.987Z,11.52
2023-04-08T02:30:12.695Z,11.30
2023-04-08T02:32:42.991Z,12.43
2023-04-08T02:35:12.774Z,13.93
2023-04-08T02:37:40.771Z,11.70
2023-04-08T02:40:24.778Z,13.23
2023-04-08T02:42:52.568Z,12.52
2023-04-08T02:45:20.786Z,12.68
2023-04-08T02:47:50.034Z,13.00
2023-04-08T02:50:18.080Z,13.15
2023-04-08T02:52:45.839Z,13.25
2023-04-08T02:55:13.557Z,14.00
2023-04-08T02:57:43.249Z,13.70
2023-04-08T03:00:11.990Z,13.70
2023-04-08T03:02:39.829Z,13.95
2023-04-08T03:05:10.415Z,14.23
2023-04-08T03:07:38.483Z,13.70
2023-04-08T03:10:07.650Z,13.52
2023-04-08T03:12:35.325Z,14.45
2023-04-08T03:15:03.643Z,14.05
2023-04-08T03:17:33.844Z,14.77
2023-04-08T03:20:01.751Z,13.73
2023-04-08T03:22:30.800Z,13.93
2023-04-08T03:24:58.477Z,12.77
2023-04-08T03:27:26.442Z,14.30
2023-04-08T03:29:54.136Z,13.45
2023-04-08T03:32:22.021Z,13.73
2023-04-08T03:34:51.298Z,13.65
2023-04-08T03:37:19.140Z,12.65
2023-04-08T03:39:48.193Z,13.07
2023-04-08T03:42:16.016Z,13.68
2023-04-08T03:44:43.637Z,14.98
2023-04-08T03:47:11.388Z,12.85
2023-04-08T03:49:39.046Z,13.07
2023-04-08T03:52:07.102Z,13.27
2023-04-08T03:54:34.820Z,12.50
2023-04-08T03:57:03.913Z,12.10
2023-04-08T03:59:31.961Z,11.98
2023-04-08T04:01:59.738Z,11.25
2023-04-08T04:04:27.610Z,10.88
2023-04-08T04:06:56.105Z,11.93
2023-04-08T04:09:24.406Z,12.38
2023-04-08T04:11:52.094Z,11.80
2023-04-08T04:14:21.108Z,11.93
2023-04-08T04:16:48.809Z,11.13
2023-04-08T04:19:17.787Z,12.48
2023-04-08T04:21:45.576Z,12.73
2023-04-08T04:24:13.504Z,13.23
2023-04-08T04:26:41.721Z,13.45
2023-04-08T04:29:09.427Z,12.73
2023-04-08T04:31:38.550Z,13.48
2023-04-08T04:34:06.483Z,14.52
2023-04-08T04:36:34.200Z,14.57
2023-04-08T04:39:01.867Z,14.98
2023-04-08T04:41:29.619Z,15.32
2023-04-08T04:43:57.338Z,14.20
2023-04-08T04:46:25.107Z,14.55
2023-04-08T04:48:54.214Z,13.40
2023-04-08T04:51:27.534Z,14.40
2023-04-08T04:53:55.373Z,15.15
2023-04-08T04:56:23.069Z,15.30
2023-04-08T04:58:51.033Z,14.52
2023-04-08T05:01:18.970Z,14.10
2023-04-08T05:03:46.745Z,14.30
2023-04-08T05:06:15.862Z,15.02
2023-04-08T05:08:43.601Z,14.90
2023-04-08T05:11:11.356Z,15.77
2023-04-08T05:13:39.029Z,16.25
2023-04-08T05:16:07.359Z,16.90
2023-04-08T05:18:35.096Z,16.00
2023-04-08T05:21:02.879Z,14.20
2023-04-08T05:23:32.004Z,16.15
2023-04-08T05:26:02.681Z,14.90
2023-04-08T05:28:30.369Z,15.32
2023-04-08T05:30:58.078Z,13.68
2023-04-08T05:33:26.625Z,14.48
2023-04-08T05:35:54.388Z,15.88
2023-04-08T05:38:22.188Z,14.30
2023-04-08T05:40:51.453Z,15.70
2023-04-08T05:43:19.120Z,14.57
2023-04-08T05:45:46.861Z,14.02
2023-04-08T05:48:14.616Z,15.95
2023-04-08T05:50:43.137Z,15.70
2023-04-08T05:53:10.917Z,15.32
2023-04-08T05:55:38.668Z,16.20
2023-04-08T05:58:08.010Z,17.10
2023-04-08T06:00:35.757Z,16.00
2023-04-08T06:03:03.696Z,15.63
2023-04-08T06:05:32.823Z,15.85
2023-04-08T06:08:00.722Z,16.52
2023-04-08T06:10:28.554Z,16.83
2023-04-08T06:12:56.252Z,17.30
2023-04-08T06:15:27.084Z,15.95
2023-04-08T06:17:54.814Z,15.50
2023-04-08T06:20:22.784Z,15.95
2023-04-08T06:22:50.536Z,16.60
2023-04-08T06:25:18.389Z,15.30
2023-04-08T06:27:46.069Z,15.95
2023-04-08T06:30:14.086Z,17.63
2023-04-08T06:32:43.145Z,16.10
2023-04-08T06:35:11.273Z,14.98
2023-04-08T06:37:39.066Z,14.43
2023-04-08T06:40:08.029Z,15.05
2023-04-08T06:42:36.033Z,15.27
2023-04-08T06:45:03.854Z,15.45
2023-04-08T06:47:31.721Z,14.02
2023-04-08T06:50:01.081Z,13.30
2023-04-08T06:52:28.791Z,12.77
2023-04-08T06:54:56.499Z,13.50
2023-04-08T06:57:24.253Z,12.73
2023-04-08T06:59:53.030Z,12.80
2023-04-08T07:02:22.263Z,13.35
2023-04-08T07:04:50.060Z,14.27
2023-04-08T07:07:31.241Z,13.10
2023-04-08T07:09:58.993Z,12.70
2023-04-08T07:12:26.724Z,14.40
2023-04-08T07:14:54.409Z,14.55
2023-04-08T07:17:22.465Z,13.43
2023-04-08T07:19:50.420Z,13.35
2023-04-08T07:22:19.501Z,13.07
2023-04-08T07:24:49.837Z,13.23
2023-04-08T07:27:17.689Z,14.30
2023-04-08T07:29:45.574Z,12.88
2023-04-08T07:32:13.308Z,14.07
2023-04-08T07:34:41.219Z,14.35
2023-04-08T07:37:08.898Z,15.13
2023-04-08T07:39:37.961Z,13.15
2023-04-08T07:42:05.699Z,13.68
2023-04-08T07:44:33.481Z,14.35
2023-04-08T07:47:01.178Z,12.25
2023-04-08T07:49:28.923Z,12.30
2023-04-08T07:51:57.516Z,11.35
2023-04-08T07:54:25.351Z,12.77
2023-04-08T07:56:54.647Z,12.35
2023-04-08T07:59:22.412Z,11.02
2023-04-08T08:01:50.227Z,11.65
2023-04-08T08:04:18.345Z,11.90
2023-04-08T08:06:46.366Z,12.55
2023-04-08T08:09:14.371Z,11.50
2023-04-08T08:11:42.098Z,10.73
2023-04-08T08:14:11.801Z,11.20
2023-04-08T08:16:39.752Z,11.43
2023-04-08T08:19:08.836Z,11.65
2023-04-08T08:21:37.875Z,11.48
2023-04-08T08:24:05.828Z,12.25
2023-04-08T08:26:36.726Z,12.25
2023-04-08T08:29:04.862Z,11.05
2023-04-08T08:31:33.906Z,11.38
2023-04-08T08:34:01.803Z,11.60
2023-04-08T08:36:29.756Z,11.95
2023-04-08T08:38:57.441Z,11.55
2023-04-08T08:41:25.251Z,11.80
2023-04-08T08:43:53.743Z,11.85
2023-04-08T08:46:21.527Z,11.50
2023-04-08T08:48:50.900Z,12.50
2023-04-08T08:51:18.957Z,11.45
2023-04-08T08:53:46.816Z,10.85
2023-04-08T08:56:18.417Z,11.00
2023-04-08T08:58:47.727Z,10.70
2023-04-08T09:01:35.189Z,11.10
2023-04-08T09:04:14.058Z,11.70
2023-04-08T09:06:42.234Z,12.27
2023-04-08T09:09:13.181Z,12.17
2023-04-08T09:11:42.594Z,11.90
2023-04-08T09:14:21.280Z,11.40
2023-04-08T09:16:49.230Z,11.00
2023-04-08T09:19:18.784Z,10.57
2023-04-08T09:21:47.595Z,10.13
2023-04-08T09:24:29.513Z,11.03
2023-04-08T09:26:57.403Z,11.47
2023-04-08T09:29:27.830Z,11.40
2023-04-08T09:31:58.002Z,10.37
2023-04-08T09:34:29.075Z,11.60
2023-04-08T09:36:57.231Z,12.07
2023-04-08T09:39:25.017Z,11.47
2023-04-08T09:41:53.620Z,11.70
2023-04-08T09:44:27.663Z,11.27
2023-04-08T09:47:02.774Z,11.60
2023-04-08T09:49:44.998Z,11.57
2023-04-08T09:52:16.118Z,10.70
2023-04-08T09:54:53.597Z,10.90
2023-04-08T09:57:30.058Z,12.50
2023-04-08T10:00:04.110Z,11.27
2023-04-08T10:02:41.924Z,11.20
2023-04-08T10:05:14.966Z,11.17
2023-04-08T10:07:43.339Z,10.60
2023-04-08T10:10:12.018Z,11.33
2023-04-08T10:12:40.306Z,11.47
2023-04-08T10:15:36.159Z,11.50
2023-04-08T10:18:40.128Z,12.10
2023-04-08T10:21:33.915Z,11.10
2023-04-08T10:24:06.204Z,12.10
2023-04-08T10:26:38.809Z,11.73
2023-04-08T10:29:31.641Z,12.20
2023-04-08T10:31:59.787Z,11.43
2023-04-08T10:34:28.175Z,12.30
2023-04-08T10:37:02.006Z,12.10
2023-04-08T10:39:30.034Z,11.70
2023-04-08T10:41:57.763Z,11.83
2023-04-08T10:44:27.398Z,11.27
2023-04-08T10:46:55.879Z,11.27
2023-04-08T10:49:24.018Z,12.87
2023-04-08T10:51:52.544Z,12.60
2023-04-08T10:54:23.160Z,11.23
2023-04-08T10:56:52.445Z,11.87
2023-04-08T10:59:29.657Z,12.00
2023-04-08T11:01:58.470Z,11.13
2023-04-08T11:04:27.130Z,11.67
2023-04-08T11:06:54.923Z,11.27
2023-04-08T11:09:23.960Z,12.10
2023-04-08T11:11:53.650Z,12.33
2023-04-08T11:14:22.479Z,11.00
2023-04-08T11:16:50.455Z,11.47
2023-04-08T11:19:19.084Z,11.07
2023-04-08T11:21:46.920Z,10.23
2023-04-08T11:24:16.470Z,11.40
2023-04-08T11:26:46.010Z,11.93
2023-04-08T11:29:15.128Z,11.07
2023-04-08T11:31:43.875Z,11.67
2023-04-08T11:34:12.168Z,11.10
2023-04-08T11:36:41.929Z,10.93
2023-04-08T11:39:12.268Z,10.70
2023-04-08T11:41:40.748Z,11.30
2023-04-08T11:44:10.158Z,12.27
2023-04-08T11:46:37.953Z,11.57
2023-04-08T11:49:07.769Z,11.63
2023-04-08T11:51:36.173Z,11.60
2023-04-08T11:54:07.431Z,11.53
2023-04-08T11:56:47.085Z,10.63
2023-04-08T11:59:16.343Z,11.40
2023-04-08T12:01:44.238Z,10.77
2023-04-08T12:04:12.652Z,12.17
2023-04-08T12:06:43.469Z,11.87
2023-04-08T12:09:11.501Z,11.83
2023-04-08T12:11:39.191Z,11.10
2023-04-08T12:14:06.901Z,10.60
2023-04-08T12:16:36.374Z,11.80
2023-04-08T12:19:04.288Z,11.43
2023-04-08T12:21:32.226Z,12.47
2023-04-08T12:23:59.875Z,12.23
2023-04-08T12:26:28.149Z,12.13
2023-04-08T12:28:55.907Z,11.60
2023-04-08T12:31:23.766Z,12.73
2023-04-08T12:33:53.085Z,10.27
2023-04-08T12:36:21.235Z,10.93
2023-04-08T12:38:49.298Z,10.20
2023-04-08T12:41:17.151Z,9.73
2023-04-08T12:43:45.194Z,10.77
2023-04-08T12:46:13.323Z,11.53
2023-04-08T12:48:41.110Z,10.70
2023-04-08T12:51:10.605Z,11.60
2023-04-08T12:53:38.376Z,11.53
2023-04-08T12:56:07.053Z,9.77
2023-04-08T12:58:34.878Z,11.60
2023-04-08T13:01:02.606Z,11.33
2023-04-08T13:03:31.992Z,11.47
2023-04-08T13:06:00.002Z,9.73
2023-04-08T13:08:29.237Z,11.00
2023-04-08T13:10:57.044Z,11.30
2023-04-08T13:13:24.755Z,10.40
2023-04-08T13:15:52.943Z,10.57
2023-04-08T13:18:20.728Z,10.53
2023-04-08T13:20:48.451Z,10.87
2023-04-08T13:23:17.947Z,11.87
2023-04-08T13:25:47.022Z,10.40
2023-04-08T13:28:15.177Z,11.60
2023-04-08T13:30:42.889Z,11.23
2023-04-08T13:33:10.632Z,10.80
2023-04-08T13:35:38.483Z,11.00
2023-04-08T13:38:06.237Z,12.13
2023-04-08T13:40:34.334Z,11.50
2023-04-08T13:43:03.485Z,11.40
2023-04-08T13:45:31.317Z,11.30
2023-04-08T13:47:59.790Z,11.33
2023-04-08T13:50:28.094Z,11.75
2023-04-08T13:52:57.074Z,10.67
2023-04-08T13:55:24.913Z,10.73
2023-04-08T13:57:52.661Z,10.77
2023-04-08T14:00:22.513Z,11.17
2023-04-08T14:02:51.638Z,11.73
2023-04-08T14:05:19.520Z,11.30
2023-04-08T14:07:47.159Z,10.33
2023-04-08T14:10:17.479Z,11.00
2023-04-08T14:12:46.618Z,12.50
2023-04-08T14:15:14.390Z,11.37
2023-04-08T14:17:43.466Z,11.90
2023-04-08T14:20:11.866Z,11.37
2023-04-08T14:22:39.578Z,11.00
2023-04-08T14:25:07.617Z,11.03
2023-04-08T14:27:35.643Z,11.63
2023-04-08T14:30:03.550Z,11.77
2023-04-08T14:32:32.218Z,11.20
2023-04-08T14:35:01.402Z,11.67
2023-04-08T14:37:29.690Z,11.40
2023-04-08T14:39:57.424Z,10.93
2023-04-08T14:42:25.267Z,11.47
2023-04-08T14:44:52.967Z,11.70
2023-04-08T14:47:21.130Z,10.60
2023-04-08T14:49:48.872Z,12.23
2023-04-08T14:52:17.946Z,10.50
2023-04-08T14:54:46.999Z,10.50
2023-04-08T14:57:14.668Z,11.10
2023-04-08T14:59:42.372Z,10.30
2023-04-08T15:02:10.325Z,10.23
2023-04-08T15:04:38.147Z,10.40
2023-04-08T15:07:06.300Z,10.40
2023-04-08T15:09:35.466Z,9.30
2023-04-08T15:12:03.242Z,9.40
2023-04-08T15:14:31.012Z,8.90
2023-04-08T15:16:59.139Z,9.00
2023-04-08T15:19:26.866Z,8.07
2023-04-08T15:21:54.596Z,7.20
2023-04-08T15:24:22.537Z,7.90
2023-04-08T15:26:51.674Z,7.57
2023-04-08T15:29:19.430Z,7.47
2023-04-08T15:31:47.388Z,7.50
2023-04-08T15:34:15.318Z,7.50
2023-04-08T15:36:43.302Z,7.53
2023-04-08T15:39:11.101Z,7.20
2023-04-08T15:41:39.203Z,7.35
2023-04-08T15:44:08.251Z,6.30
2023-04-08T15:46:37.568Z,7.13
2023-04-08T15:49:06.210Z,6.10
2023-04-08T15:51:34.319Z,6.40
2023-04-08T15:54:02.463Z,5.53
2023-04-08T15:56:30.600Z,6.03
2023-04-08T15:58:58.420Z,6.50
2023-04-08T16:01:27.557Z,6.30
2023-04-08T16:03:55.348Z,5.33
2023-04-08T16:06:23.225Z,5.20
2023-04-08T16:08:51.319Z,5.73
2023-04-08T16:11:19.228Z,5.30
2023-04-08T16:13:47.124Z,5.73
2023-04-08T16:16:14.922Z,6.00
2023-04-08T16:18:46.088Z,5.60
2023-04-08T16:21:15.148Z,6.20
2023-04-08T16:23:43.030Z,5.47
2023-04-08T16:26:10.785Z,5.20
2023-04-08T16:28:39.946Z,5.33
2023-04-08T16:31:08.105Z,5.43
2023-04-08T16:33:36.732Z,13.90
2023-04-08T16:36:06.442Z,5.73
2023-04-08T16:38:34.274Z,5.82
2023-04-08T16:41:04.376Z,7.05
2023-04-08T16:43:32.138Z,6.07
2023-04-08T16:45:59.931Z,6.05
2023-04-08T16:48:27.700Z,6.60
2023-04-08T16:51:00.228Z,6.18
2023-04-08T16:53:29.356Z,6.65
2023-04-08T16:55:57.066Z,6.95
2023-04-08T16:58:24.927Z,6.20
2023-04-08T17:00:52.767Z,6.75
2023-04-08T17:03:20.730Z,6.38
2023-04-08T17:05:48.646Z,6.63
2023-04-08T17:08:18.703Z,6.53
2023-04-08T17:10:49.669Z,6.45
2023-04-08T17:13:17.485Z,7.20
2023-04-08T17:15:45.263Z,5.60
2023-04-08T17:18:13.220Z,6.30
2023-04-08T17:20:40.952Z,6.70
2023-04-08T17:23:09.701Z,6.07
2023-04-08T17:25:38.061Z,6.88
2023-04-08T17:28:07.541Z,6.75
2023-04-08T17:30:35.633Z,6.20
2023-04-08T17:33:03.552Z,6.78
2023-04-08T17:35:31.714Z,6.57
2023-04-08T17:37:59.520Z,5.45
2023-04-08T17:40:27.501Z,6.38
2023-04-08T17:42:55.235Z,5.93
2023-04-08T17:45:24.476Z,5.93
2023-04-08T17:47:52.867Z,5.70
2023-04-08T17:50:23.417Z,7.15
2023-04-08T17:52:51.128Z,6.32
2023-04-08T17:55:18.869Z,6.25
2023-04-08T17:57:47.059Z,5.90
2023-04-08T18:00:15.159Z,6.78
2023-04-08T18:02:44.669Z,5.90
2023-04-08T18:05:12.848Z,6.35
2023-04-08T18:07:40.602Z,5.60
2023-04-08T18:10:09.617Z,6.85
2023-04-08T18:12:37.522Z,6.05
2023-04-08T18:15:05.866Z,6.97
2023-04-08T18:17:33.606Z,6.05
2023-04-08T18:20:02.835Z,7.15
2023-04-08T18:22:33.505Z,8.15
2023-04-08T18:25:01.286Z,7.60
2023-04-08T18:27:28.994Z,8.18
2023-04-08T18:29:56.926Z,7.50
2023-04-08T18:32:24.888Z,7.32
2023-04-08T18:34:52.836Z,6.63
2023-04-08T18:37:22.047Z,7.25
2023-04-08T18:39:49.792Z,7.85
2023-04-08T18:42:18.154Z,6.68
2023-04-08T18:44:46.046Z,6.70
2023-04-08T18:47:13.762Z,7.10
2023-04-08T18:49:41.570Z,7.78
2023-04-08T18:52:09.426Z,7.57
2023-04-08T18:54:38.485Z,6.75
2023-04-08T18:57:06.502Z,7.38
2023-04-08T18:59:34.274Z,6.75
2023-04-08T19:02:02.038Z,7.80
2023-04-08T19:04:29.925Z,7.25
2023-04-08T19:06:57.726Z,8.18
2023-04-08T19:09:25.488Z,7.60
2023-04-08T19:11:55.031Z,7.90
2023-04-08T19:14:22.941Z,6.88
2023-04-08T19:16:50.739Z,7.25
2023-04-08T19:19:18.387Z,6.95
2023-04-08T19:21:46.718Z,7.88
2023-04-08T19:24:14.749Z,14.85
2023-04-08T19:26:42.534Z,7.28
2023-04-08T19:29:11.967Z,7.28
2023-04-08T19:31:40.950Z,7.35
2023-04-08T19:34:08.658Z,7.45
2023-04-08T19:36:36.484Z,8.40
2023-04-08T19:39:05.692Z,7.40
2023-04-08T19:41:33.500Z,7.90
2023-04-08T19:44:01.492Z,7.80
2023-04-08T19:46:31.096Z,8.52
2023-04-08T19:48:59.027Z,7.57
2023-04-08T19:51:29.168Z,7.50
2023-04-08T19:59:26.316Z,8.02
2023-04-08T20:01:55.464Z,8.65
2023-04-08T20:04:23.360Z,9.10
2023-04-08T20:06:51.112Z,8.88
2023-04-08T20:09:18.820Z,8.82
2023-04-08T20:11:46.622Z,9.00
2023-04-08T20:14:16.969Z,8.95
2023-04-08T20:16:44.768Z,9.07
2023-04-08T20:19:13.834Z,8.20
2023-04-08T20:21:41.869Z,8.35
2023-04-08T20:24:09.605Z,9.35
2023-04-08T20:26:37.440Z,8.63
2023-04-08T20:29:07.924Z,8.40
2023-04-08T20:31:35.673Z,8.90
2023-04-08T20:34:03.790Z,8.73
2023-04-08T20:36:34.527Z,8.52
2023-04-08T20:39:02.392Z,8.55
2023-04-08T20:41:30.171Z,9.20
2023-04-08T20:43:57.894Z,8.48
2023-04-08T20:46:25.961Z,9.35
2023-04-08T20:48:53.870Z,10.23
2023-04-08T20:51:22.143Z,8.55
2023-04-08T20:53:51.301Z,8.63
2023-04-08T20:56:19.038Z,9.70
2023-04-08T20:58:46.736Z,9.13
2023-04-08T21:01:14.493Z,9.40
2023-04-08T21:03:42.577Z,11.15
2023-04-08T21:06:16.910Z,10.10
2023-04-08T21:08:44.671Z,9.15
2023-04-08T21:11:14.014Z,9.93
2023-04-08T21:13:41.775Z,9.93
2023-04-08T21:16:09.721Z,9.30
2023-04-08T21:18:40.108Z,8.95
2023-04-08T21:21:07.859Z,11.10
2023-04-08T21:23:35.791Z,9.90
2023-04-08T21:26:03.766Z,10.13
2023-04-08T21:28:33.020Z,10.30
2023-04-08T21:31:08.727Z,9.50
2023-04-08T21:33:36.638Z,9.18
2023-04-08T21:36:06.148Z,9.50
2023-04-08T21:38:34.450Z,9.77
2023-04-08T21:41:02.198Z,10.25
2023-04-08T21:43:29.936Z,9.77
2023-04-08T21:45:59.088Z,10.45
2023-04-08T21:48:26.874Z,10.80
2023-04-08T21:50:54.550Z,11.15
2023-04-08T21:53:23.792Z,10.50
2023-04-08T21:55:51.618Z,12.23
2023-04-08T21:58:19.388Z,12.75
2023-04-08T22:00:47.199Z,11.63
2023-04-08T22:03:16.345Z,11.05
2023-04-08T22:05:44.113Z,11.35
2023-04-08T22:08:12.323Z,10.45
2023-04-08T22:10:40.061Z,11.18
2023-04-08T22:13:07.795Z,11.50
2023-04-08T22:15:35.471Z,10.55
2023-04-08T22:18:04.780Z,11.15
2023-04-08T22:20:33.939Z,10.10
2023-04-08T22:23:01.692Z,11.45
2023-04-08T22:25:29.401Z,10.63
2023-04-08T22:27:57.372Z,11.10
2023-04-08T22:30:25.121Z,10.75
2023-04-08T22:32:52.883Z,10.65
2023-04-08T22:35:21.413Z,10.85
2023-04-08T22:37:50.468Z,11.23
2023-04-08T22:40:18.233Z,10.70
2023-04-08T22:42:50.248Z,10.55
2023-04-08T22:45:17.990Z,10.38
2023-04-08T22:47:45.745Z,10.65
2023-04-08T22:50:13.516Z,11.25
2023-04-08T22:52:41.449Z,10.30
2023-04-08T22:55:11.030Z,10.13
2023-04-08T22:57:38.897Z,10.45
2023-04-08T23:00:07.881Z,10.50
2023-04-08T23:02:35.633Z,9.60
2023-04-08T23:05:03.465Z,10.65
2023-04-08T23:07:31.184Z,9.57
2023-04-08T23:09:58.901Z,9.82
2023-04-08T23:12:28.023Z,9.90
2023-04-08T23:14:56.018Z,10.38
2023-04-08T23:17:24.000Z,11.80
2023-04-08T23:19:51.883Z,9.40
2023-04-08T23:22:19.543Z,9.90
2023-04-08T23:24:47.158Z,9.88
2023-04-08T23:27:14.903Z,10.43
2023-04-08T23:29:43.960Z,9.95
2023-04-08T23:32:11.682Z,10.23
2023-04-08T23:34:39.433Z,10.40
2023-04-08T23:37:07.191Z,9.25
2023-04-08T23:39:34.896Z,10.63
2023-04-08T23:42:02.838Z,9.82
2023-04-08T23:44:30.728Z,10.27
2023-04-08T23:46:59.793Z,10.15
2023-04-08T23:49:27.454Z,9.57
2023-04-08T23:51:55.171Z,10.10
2023-04-08T23:54:22.971Z,10.05
2023-04-08T23:56:50.777Z,10.10
2023-04-08T23:59:19.014Z,10.32
